createdAt,value
2019-05-09T00:01:24.774Z,12.90
2019-05-09T00:03:54.433Z,12.90
2019-05-09T00:06:24.064Z,13.00
2019-05-09T00:08:53.468Z,12.90
2019-05-09T00:11:24.614Z,12.90
2019-05-09T00:13:53.973Z,12.90
2019-05-09T00:16:23.695Z,12.80
2019-05-09T00:18:54.348Z,12.70
2019-05-09T00:21:43.608Z,12.60
2019-05-09T00:24:13.873Z,12.60
2019-05-09T00:26:44.257Z,12.60
2019-05-09T00:29:33.456Z,12.50
2019-05-09T00:32:06.931Z,12.50
2019-05-09T00:34:44.066Z,12.60
2019-05-09T00:37:13.537Z,12.50
2019-05-09T00:39:43.509Z,12.50
2019-05-09T00:42:13.733Z,12.50
2019-05-09T00:44:44.884Z,12.40
2019-05-09T00:47:18.514Z,12.40
2019-05-09T00:49:47.777Z,12.30
2019-05-09T00:52:17.065Z,12.30
2019-05-09T00:54:46.608Z,12.20
2019-05-09T00:57:33.916Z,12.10
2019-05-09T01:00:14.506Z,11.90
2019-05-09T01:02:43.637Z,11.80
2019-05-09T01:05:13.382Z,11.90
2019-05-09T01:07:43.165Z,11.90
2019-05-09T01:10:13.426Z,11.90
2019-05-09T01:12:43.531Z,11.90
2019-05-09T01:15:13.439Z,12.00
2019-05-09T01:17:44.146Z,11.90
2019-05-09T01:20:14.685Z,11.70
2019-05-09T01:22:44.157Z,11.60
2019-05-09T01:25:14.945Z,11.60
2019-05-09T01:27:44.206Z,11.70
2019-05-09T01:30:14.220Z,11.80
2019-05-09T01:32:45.138Z,11.80
2019-05-09T01:35:14.409Z,11.80
2019-05-09T01:37:43.684Z,11.80
2019-05-09T01:40:13.292Z,11.90
2019-05-09T01:42:43.218Z,11.80
2019-05-09T01:45:14.111Z,11.90
2019-05-09T01:47:43.525Z,12.00
2019-05-09T01:50:14.006Z,11.90
2019-05-09T01:52:43.935Z,12.00
2019-05-09T01:55:14.193Z,12.10
2019-05-09T01:57:47.461Z,12.10
2019-05-09T02:00:14.825Z,12.00
2019-05-09T02:02:44.088Z,12.10
2019-05-09T02:05:13.595Z,12.10
2019-05-09T02:07:43.850Z,12.10
2019-05-09T02:10:13.945Z,12.10
2019-05-09T02:12:43.289Z,12.10
2019-05-09T02:15:20.313Z,12.00
2019-05-09T02:18:06.302Z,12.10
2019-05-09T02:20:35.841Z,12.00
2019-05-09T02:23:05.106Z,11.80
2019-05-09T02:25:34.380Z,11.80
2019-05-09T02:28:03.649Z,11.80
2019-05-09T02:30:36.070Z,12.00
2019-05-09T02:33:05.120Z,12.00
2019-05-09T02:35:41.515Z,12.10
2019-05-09T02:38:05.574Z,12.10
2019-05-09T02:40:34.862Z,12.10
2019-05-09T02:43:04.204Z,12.10
2019-05-09T02:45:38.942Z,12.10
2019-05-09T02:48:09.365Z,12.10
2019-05-09T02:50:38.987Z,12.10
2019-05-09T02:53:08.312Z,12.10
2019-05-09T02:55:38.741Z,12.10
2019-05-09T02:58:09.801Z,12.10
2019-05-09T03:00:52.741Z,12.10
2019-05-09T03:03:24.711Z,12.20
2019-05-09T03:05:54.213Z,12.20
2019-05-09T03:08:23.482Z,12.30
2019-05-09T03:10:52.758Z,12.30
2019-05-09T03:13:22.031Z,12.30
2019-05-09T03:15:52.952Z,12.40
2019-05-09T03:18:22.242Z,12.30
2019-05-09T03:20:58.868Z,12.30
2019-05-09T03:23:28.673Z,12.30
2019-05-09T03:25:59.013Z,12.20
2019-05-09T03:28:38.648Z,12.20
2019-05-09T03:31:11.288Z,12.20
2019-05-09T03:33:41.510Z,12.20
2019-05-09T03:36:10.796Z,12.20
2019-05-09T03:38:40.150Z,12.10
2019-05-09T03:41:09.421Z,12.10
2019-05-09T03:43:39.645Z,12.10
2019-05-09T03:46:22.929Z,12.00
2019-05-09T03:48:58.254Z,12.00
2019-05-09T03:51:27.662Z,12.10
2019-05-09T03:53:57.556Z,12.10
2019-05-09T03:56:28.705Z,12.10
2019-05-09T03:58:57.982Z,12.20
2019-05-09T04:01:28.318Z,12.30
2019-05-09T04:03:58.383Z,12.20
2019-05-09T04:06:28.347Z,12.20
2019-05-09T04:08:58.522Z,12.30
2019-05-09T04:11:28.126Z,12.20
2019-05-09T04:13:59.421Z,12.20
2019-05-09T04:16:28.705Z,12.30
2019-05-09T04:18:58.246Z,12.20
2019-05-09T04:21:28.090Z,12.30
2019-05-09T04:23:58.491Z,12.30
2019-05-09T04:26:48.288Z,12.30
2019-05-09T04:29:18.350Z,12.20
2019-05-09T04:31:48.350Z,12.10
2019-05-09T04:34:18.387Z,12.20
2019-05-09T04:36:48.402Z,12.00
2019-05-09T04:39:23.104Z,12.00
2019-05-09T04:41:49.011Z,12.10
2019-05-09T04:44:21.810Z,12.10
2019-05-09T04:46:54.239Z,12.20
2019-05-09T04:49:23.242Z,12.20
2019-05-09T04:51:52.509Z,12.30
2019-05-09T04:54:21.788Z,12.30
2019-05-09T04:56:53.652Z,12.40
2019-05-09T04:59:22.021Z,12.50
2019-05-09T05:01:59.204Z,12.50
2019-05-09T05:04:28.574Z,12.60
2019-05-09T05:06:58.487Z,12.70
2019-05-09T05:09:28.104Z,12.80
2019-05-09T05:11:57.959Z,12.80
2019-05-09T05:14:29.265Z,12.90
2019-05-09T05:17:07.543Z,13.10
2019-05-09T05:19:31.479Z,13.10
2019-05-09T05:22:02.143Z,13.30
2019-05-09T05:24:33.054Z,13.40
2019-05-09T05:27:02.334Z,13.40
2019-05-09T05:29:31.833Z,13.40
2019-05-09T05:32:03.821Z,13.40
2019-05-09T05:34:34.729Z,13.40
2019-05-09T05:37:04.001Z,13.40
2019-05-09T05:39:33.279Z,13.50
2019-05-09T05:42:02.538Z,13.60
2019-05-09T05:44:31.817Z,13.50
2019-05-09T05:47:08.662Z,13.40
2019-05-09T05:49:38.568Z,13.40
2019-05-09T05:52:08.218Z,13.60
2019-05-09T05:54:38.011Z,13.40
2019-05-09T05:57:08.370Z,13.40
2019-05-09T05:59:50.251Z,13.40
2019-05-09T06:02:19.555Z,13.20
2019-05-09T06:04:48.885Z,13.40
2019-05-09T06:07:18.561Z,13.70
2019-05-09T06:09:48.419Z,13.80
2019-05-09T06:12:18.515Z,13.90
2019-05-09T06:15:25.549Z,14.10
2019-05-09T06:17:54.864Z,14.20
2019-05-09T06:20:27.954Z,14.20
2019-05-09T06:22:58.165Z,14.20
2019-05-09T06:25:31.225Z,14.20
2019-05-09T06:31:48.613Z,14.10
2019-05-09T06:34:19.210Z,13.40
2019-05-09T06:36:49.010Z,13.60
2019-05-09T06:39:18.680Z,13.80
2019-05-09T06:41:48.559Z,13.80
2019-05-09T06:44:23.612Z,14.10
2019-05-09T06:47:01.063Z,13.60
2019-05-09T06:49:50.105Z,13.30
2019-05-09T06:52:19.564Z,13.30
2019-05-09T06:54:48.974Z,13.40
2019-05-09T06:58:13.463Z,13.60
2019-05-09T07:00:50.380Z,13.60
2019-05-09T07:03:21.348Z,13.40
2019-05-09T07:05:58.352Z,13.70
2019-05-09T07:08:31.385Z,13.90
2019-05-09T07:11:01.470Z,14.10
2019-05-09T07:13:31.866Z,14.20
2019-05-09T07:16:01.218Z,14.40
2019-05-09T07:18:38.404Z,14.60
2019-05-09T07:21:08.479Z,14.70
2019-05-09T07:23:44.563Z,14.50
2019-05-09T07:26:21.663Z,14.50
2019-05-09T07:28:50.964Z,14.60
2019-05-09T07:31:30.760Z,14.60
2019-05-09T07:34:01.703Z,14.60
2019-05-09T07:40:18.508Z,14.90
2019-05-09T07:42:48.173Z,15.00
2019-05-09T07:45:18.036Z,15.00
2019-05-09T07:47:48.518Z,14.70
2019-05-09T07:50:18.972Z,14.90
2019-05-09T07:52:48.629Z,14.90
2019-05-09T07:55:18.300Z,14.90
2019-05-09T07:57:54.933Z,14.90
2019-05-09T08:00:33.380Z,15.00
2019-05-09T08:03:02.693Z,15.00
2019-05-09T08:05:32.240Z,15.00
2019-05-09T08:08:01.546Z,15.00
2019-05-09T08:10:33.195Z,15.00
2019-05-09T08:13:01.988Z,14.80
2019-05-09T08:15:40.424Z,14.80
2019-05-09T08:18:09.709Z,15.00
2019-05-09T08:20:40.708Z,15.10
2019-05-09T08:23:10.227Z,15.10
2019-05-09T08:25:39.756Z,15.00
2019-05-09T08:28:09.363Z,15.00
2019-05-09T08:31:28.195Z,14.90
2019-05-09T08:33:59.437Z,14.80
2019-05-09T08:36:29.104Z,14.70
2019-05-09T08:38:58.982Z,14.90
2019-05-09T08:41:29.251Z,15.10
2019-05-09T08:43:58.714Z,15.10
2019-05-09T08:46:28.748Z,15.10
2019-05-09T08:48:58.175Z,15.30
2019-05-09T08:51:37.085Z,15.20
2019-05-09T08:54:00.190Z,15.40
2019-05-09T08:56:29.624Z,15.50
2019-05-09T08:59:02.169Z,15.60
2019-05-09T09:01:49.705Z,15.60
2019-05-09T09:04:01.762Z,15.50
2019-05-09T09:06:31.152Z,15.40
2019-05-09T09:09:00.455Z,15.40
2019-05-09T09:11:30.822Z,15.30
2019-05-09T09:14:00.154Z,15.30
2019-05-09T09:16:29.479Z,15.60
2019-05-09T09:18:58.904Z,15.60
2019-05-09T09:21:28.717Z,15.60
2019-05-09T09:23:58.584Z,15.50
2019-05-09T09:26:27.996Z,15.40
2019-05-09T09:28:57.874Z,15.50
2019-05-09T09:31:28.653Z,15.60
2019-05-09T09:33:58.690Z,15.50
2019-05-09T09:36:28.237Z,15.30
2019-05-09T09:38:58.668Z,15.20
2019-05-09T09:41:28.828Z,15.30
2019-05-09T09:43:58.541Z,15.40
2019-05-09T09:46:28.682Z,15.40
2019-05-09T09:48:58.845Z,15.40
2019-05-09T09:51:28.363Z,15.40
2019-05-09T09:53:58.454Z,15.30
2019-05-09T09:56:28.395Z,15.20
2019-05-09T09:58:59.574Z,15.30
2019-05-09T10:01:30.526Z,15.40
2019-05-09T10:04:15.581Z,15.30
2019-05-09T10:06:40.091Z,15.10
2019-05-09T10:09:10.659Z,15.00
2019-05-09T10:11:39.978Z,15.00
2019-05-09T10:14:11.635Z,15.00
2019-05-09T10:16:51.603Z,15.10
2019-05-09T10:19:27.784Z,15.10
2019-05-09T10:22:01.234Z,15.20
2019-05-09T10:24:30.553Z,15.20
2019-05-09T10:27:08.838Z,15.10
2019-05-09T10:29:38.969Z,15.30
2019-05-09T10:32:10.559Z,15.30
2019-05-09T10:34:40.499Z,15.30
2019-05-09T10:37:09.810Z,15.40
2019-05-09T10:39:39.215Z,15.60
2019-05-09T10:42:18.644Z,15.60
2019-05-09T10:44:51.442Z,15.40
2019-05-09T10:47:22.390Z,15.60
2019-05-09T10:53:38.855Z,15.80
2019-05-09T10:56:08.824Z,16.00
2019-05-09T10:58:38.406Z,15.90
2019-05-09T11:01:09.115Z,16.00
2019-05-09T11:03:38.682Z,16.10
2019-05-09T11:06:08.533Z,16.10
2019-05-09T11:08:38.240Z,16.10
2019-05-09T11:11:09.512Z,15.80
2019-05-09T11:13:39.094Z,16.20
2019-05-09T11:16:08.608Z,16.70
2019-05-09T11:18:37.916Z,16.50
2019-05-09T11:21:08.420Z,16.50
2019-05-09T11:23:39.307Z,16.40
2019-05-09T11:26:08.901Z,16.30
2019-05-09T11:32:38.539Z,16.30
2019-05-09T11:35:09.047Z,16.00
2019-05-09T11:37:39.620Z,15.80
2019-05-09T11:40:09.279Z,15.60
2019-05-09T11:42:38.667Z,15.60
2019-05-09T11:45:08.482Z,16.00
2019-05-09T11:47:45.627Z,15.60
2019-05-09T11:50:09.113Z,15.30
2019-05-09T11:52:38.511Z,15.10
2019-05-09T11:55:28.144Z,15.10
2019-05-09T11:57:39.239Z,15.30
2019-05-09T12:00:09.103Z,15.10
2019-05-09T12:02:38.692Z,15.10
2019-05-09T12:05:08.898Z,14.90
2019-05-09T12:07:38.378Z,14.70
2019-05-09T12:10:08.097Z,14.60
2019-05-09T12:12:39.041Z,14.70
2019-05-09T12:15:09.105Z,14.60
2019-05-09T12:17:52.963Z,14.70
2019-05-09T12:20:13.447Z,14.80
2019-05-09T12:22:40.864Z,14.90
2019-05-09T12:25:10.770Z,14.90
2019-05-09T12:27:40.112Z,15.00
2019-05-09T12:30:09.956Z,15.00
2019-05-09T12:32:39.271Z,15.00
2019-05-09T12:35:09.048Z,14.90
2019-05-09T12:37:38.456Z,15.00
2019-05-09T12:40:09.107Z,15.10
2019-05-09T12:42:39.445Z,15.10
2019-05-09T12:45:09.731Z,15.00
2019-05-09T12:47:39.878Z,14.80
2019-05-09T12:50:09.938Z,14.60
2019-05-09T12:52:39.462Z,14.60
2019-05-09T12:55:12.797Z,14.70
2019-05-09T12:57:40.905Z,14.40
2019-05-09T13:00:10.807Z,14.60
2019-05-09T13:02:40.132Z,14.60
2019-05-09T13:05:09.593Z,15.00
2019-05-09T13:07:42.231Z,15.10
2019-05-09T13:10:11.148Z,14.50
2019-05-09T13:12:40.481Z,14.60
2019-05-09T13:15:10.787Z,14.60
2019-05-09T13:17:44.230Z,14.70
2019-05-09T13:20:17.679Z,14.80
2019-05-09T13:22:47.772Z,14.60
2019-05-09T13:25:18.961Z,14.50
2019-05-09T13:27:52.566Z,14.50
2019-05-09T13:30:19.885Z,14.70
2019-05-09T13:32:49.320Z,14.90
2019-05-09T13:35:19.764Z,14.90
2019-05-09T13:37:49.612Z,14.90
2019-05-09T13:40:19.254Z,15.00
2019-05-09T13:42:51.262Z,15.10
2019-05-09T13:46:22.023Z,14.80
2019-05-09T13:49:05.996Z,14.60
2019-05-09T13:51:25.558Z,14.30
2019-05-09T13:53:54.893Z,14.50
2019-05-09T13:56:24.253Z,14.70
2019-05-09T13:58:53.560Z,14.80
2019-05-09T14:01:22.899Z,14.70
2019-05-09T14:03:52.210Z,14.80
2019-05-09T14:06:21.578Z,14.80
2019-05-09T14:08:52.164Z,14.70
2019-05-09T14:11:21.494Z,14.70
2019-05-09T14:13:52.910Z,14.70
2019-05-09T14:16:22.524Z,14.80
2019-05-09T14:18:55.418Z,14.80
2019-05-09T14:21:24.561Z,14.80
2019-05-09T14:24:06.612Z,14.80
2019-05-09T14:26:29.690Z,14.80
2019-05-09T14:28:58.993Z,14.70
2019-05-09T14:31:32.359Z,14.60
2019-05-09T14:34:00.868Z,14.60
2019-05-09T14:36:30.205Z,14.60
2019-05-09T14:38:59.487Z,14.70
2019-05-09T14:41:28.900Z,14.70
2019-05-09T14:43:59.833Z,14.40
2019-05-09T14:46:29.570Z,14.30
2019-05-09T14:48:58.922Z,14.30
2019-05-09T14:51:28.622Z,14.30
2019-05-09T14:53:59.382Z,14.30
2019-05-09T14:56:29.097Z,14.40
2019-05-09T14:58:58.484Z,14.50
2019-05-09T15:01:28.698Z,14.40
2019-05-09T15:03:58.814Z,14.30
2019-05-09T15:06:29.304Z,14.40
2019-05-09T15:08:58.809Z,14.40
2019-05-09T15:11:28.472Z,14.20
2019-05-09T15:13:58.565Z,14.10
2019-05-09T15:16:28.504Z,14.20
2019-05-09T15:18:58.580Z,14.40
2019-05-09T15:21:27.968Z,14.30
2019-05-09T15:23:58.879Z,14.20
2019-05-09T15:26:28.464Z,14.30
2019-05-09T15:28:58.067Z,14.40
2019-05-09T15:31:28.600Z,14.40
2019-05-09T15:33:58.208Z,14.40
2019-05-09T15:36:27.532Z,14.60
2019-05-09T15:38:59.116Z,14.60
2019-05-09T15:41:27.879Z,14.30
2019-05-09T15:43:57.878Z,14.30
2019-05-09T15:46:44.760Z,14.20
2019-05-09T15:49:14.173Z,14.30
2019-05-09T15:51:44.143Z,14.30
2019-05-09T15:54:13.580Z,14.20
2019-05-09T15:56:44.363Z,14.40
2019-05-09T15:59:13.848Z,14.30
2019-05-09T16:01:43.161Z,14.10
2019-05-09T16:04:12.739Z,14.10
2019-05-09T16:06:42.112Z,14.10
2019-05-09T16:09:12.139Z,14.10
2019-05-09T16:11:41.618Z,14.10
2019-05-09T16:14:10.927Z,14.10
2019-05-09T16:16:40.395Z,14.10
2019-05-09T16:19:09.790Z,14.20
2019-05-09T16:21:40.476Z,14.30
2019-05-09T16:24:09.934Z,14.30
2019-05-09T16:26:39.318Z,14.30
2019-05-09T16:29:08.701Z,14.30
2019-05-09T16:31:38.965Z,14.30
2019-05-09T16:34:09.376Z,14.30
2019-05-09T16:36:39.224Z,14.30
2019-05-09T16:39:09.066Z,14.40
2019-05-09T16:41:39.234Z,14.30
2019-05-09T16:51:00.664Z,14.30
2019-05-09T16:53:23.982Z,14.10
2019-05-09T16:55:53.304Z,14.10
2019-05-09T16:58:22.677Z,14.10
2019-05-09T17:00:53.235Z,14.10
2019-05-09T17:03:22.737Z,14.00
2019-05-09T17:05:52.177Z,14.00
2019-05-09T17:08:21.779Z,14.00
2019-05-09T17:10:52.118Z,14.00
2019-05-09T17:13:21.484Z,14.00
2019-05-09T17:15:50.936Z,13.90
2019-05-09T17:18:20.434Z,13.80
2019-05-09T17:21:15.044Z,13.90
2019-05-09T17:23:31.920Z,13.90
2019-05-09T17:26:01.376Z,14.00
2019-05-09T17:28:31.916Z,14.10
2019-05-09T17:31:01.379Z,14.20
2019-05-09T17:33:30.709Z,14.30
2019-05-09T17:36:00.056Z,14.30
2019-05-09T17:38:29.377Z,14.20
2019-05-09T17:40:58.691Z,14.30
2019-05-09T17:43:28.471Z,14.30
2019-05-09T17:45:58.606Z,14.20
2019-05-09T17:48:28.860Z,14.10
2019-05-09T17:50:58.245Z,14.00
2019-05-09T17:53:29.270Z,14.10
2019-05-09T17:55:58.803Z,14.00
2019-05-09T17:58:33.131Z,14.00
2019-05-09T18:00:59.249Z,14.10
2019-05-09T18:03:29.317Z,14.20
2019-05-09T18:05:58.744Z,14.20
2019-05-09T18:08:28.497Z,14.20
2019-05-09T18:10:58.487Z,14.30
2019-05-09T18:13:30.311Z,14.20
2019-05-09T18:15:59.003Z,14.10
2019-05-09T18:18:40.857Z,14.10
2019-05-09T18:21:10.361Z,14.10
2019-05-09T18:23:39.685Z,14.10
2019-05-09T18:26:09.123Z,14.10
2019-05-09T18:29:24.270Z,14.20
2019-05-09T18:32:13.988Z,14.20
2019-05-09T18:34:43.669Z,14.20
2019-05-09T18:37:13.229Z,14.20
2019-05-09T18:39:43.108Z,14.10
2019-05-09T18:42:12.423Z,14.10
2019-05-09T18:44:41.735Z,14.10
2019-05-09T18:47:11.152Z,14.20
2019-05-09T18:49:40.550Z,14.30
2019-05-09T18:52:09.881Z,14.20
2019-05-09T18:54:39.216Z,14.10
2019-05-09T18:57:08.690Z,14.20
2019-05-09T18:59:38.035Z,14.40
2019-05-09T19:02:07.442Z,14.30
2019-05-09T19:04:36.927Z,14.30
2019-05-09T19:07:21.157Z,14.40
2019-05-09T19:09:37.268Z,14.10
2019-05-09T19:12:06.607Z,14.10
2019-05-09T19:14:36.267Z,14.10
2019-05-09T19:17:19.258Z,14.20
2019-05-09T19:19:53.173Z,14.20
2019-05-09T19:22:22.915Z,14.20
2019-05-09T19:24:52.501Z,14.30
2019-05-09T19:27:21.809Z,14.40
2019-05-09T19:29:51.144Z,14.50
2019-05-09T19:32:20.458Z,14.60
2019-05-09T19:34:49.901Z,14.70
2019-05-09T19:37:19.288Z,14.80
2019-05-09T19:39:48.595Z,14.80
2019-05-09T19:42:17.970Z,14.80
2019-05-09T19:44:47.425Z,14.80
2019-05-09T19:47:17.930Z,14.80
2019-05-09T19:49:48.284Z,14.80
2019-05-09T19:52:17.779Z,14.80
2019-05-09T19:54:47.261Z,14.90
2019-05-09T19:57:37.072Z,14.80
2019-05-09T20:00:07.633Z,14.70
2019-05-09T20:03:38.120Z,14.80
2019-05-09T20:06:08.561Z,14.90
2019-05-09T20:08:37.890Z,14.80
2019-05-09T20:11:08.834Z,14.80
2019-05-09T20:13:58.422Z,14.90
2019-05-09T20:16:36.910Z,14.90
2019-05-09T20:19:06.249Z,14.90
2019-05-09T20:21:35.645Z,14.80
2019-05-09T20:24:05.256Z,14.80
2019-05-09T20:26:34.582Z,14.80
2019-05-09T20:29:05.109Z,14.80
2019-05-09T20:31:34.504Z,14.80
2019-05-09T20:34:04.027Z,14.70
2019-05-09T20:36:33.469Z,14.70
2019-05-09T20:39:04.518Z,14.60
2019-05-09T20:41:34.081Z,14.70
2019-05-09T20:44:03.990Z,14.70
2019-05-09T20:46:33.626Z,14.70
2019-05-09T20:49:03.171Z,14.60
2019-05-09T20:51:32.799Z,14.50
2019-05-09T20:54:02.311Z,14.50
2019-05-09T20:56:31.864Z,14.50
2019-05-09T20:59:01.331Z,14.30
2019-05-09T21:01:30.824Z,14.30
2019-05-09T21:04:00.914Z,14.20
2019-05-09T21:06:30.515Z,14.20
2019-05-09T21:09:00.039Z,14.30
2019-05-09T21:11:29.564Z,14.20
2019-05-09T21:13:59.130Z,14.30
2019-05-09T21:16:28.623Z,14.30
2019-05-09T21:18:58.127Z,14.40
2019-05-09T21:21:27.692Z,14.50
2019-05-09T21:28:31.107Z,14.40
2019-05-09T21:31:00.696Z,14.30
2019-05-09T21:33:30.246Z,14.30
2019-05-09T21:36:29.903Z,14.30
2019-05-09T21:42:35.777Z,14.40
2019-05-09T21:45:08.005Z,14.30
2019-05-09T21:47:37.322Z,14.20
2019-05-09T21:50:07.348Z,14.10
2019-05-09T21:52:36.746Z,14.10
2019-05-09T21:55:06.118Z,13.80
2019-05-09T21:57:35.428Z,13.70
2019-05-09T22:00:07.928Z,13.70
2019-05-09T22:02:38.857Z,13.70
2019-05-09T22:05:08.520Z,13.70
2019-05-09T22:07:37.945Z,13.60
2019-05-09T22:10:08.998Z,13.70
2019-05-09T22:12:38.331Z,13.70
2019-05-09T22:15:08.583Z,13.70
2019-05-09T22:17:38.836Z,13.70
2019-05-09T22:20:10.210Z,13.80
2019-05-09T22:22:40.585Z,13.70
2019-05-09T22:25:10.350Z,13.90
2019-05-09T22:27:39.722Z,13.90
2019-05-09T22:30:12.260Z,14.00
2019-05-09T22:32:41.635Z,13.80
2019-05-09T22:35:11.507Z,13.70
2019-05-09T22:37:40.867Z,13.70
2019-05-09T22:40:10.715Z,13.60
2019-05-09T22:42:40.119Z,13.50
2019-05-09T22:45:10.351Z,13.50
2019-05-09T22:47:39.658Z,13.50
2019-05-09T22:50:09.215Z,13.40
2019-05-09T22:52:38.620Z,13.50
2019-05-09T22:55:08.222Z,13.60
2019-05-09T22:57:37.503Z,13.60
2019-05-09T23:00:07.773Z,13.50
2019-05-09T23:02:38.747Z,13.70
2019-05-09T23:05:08.144Z,13.70
2019-05-09T23:07:37.488Z,13.60
2019-05-09T23:10:07.174Z,13.40
2019-05-09T23:12:36.538Z,13.40
2019-05-09T23:15:08.050Z,13.40
2019-05-09T23:17:38.335Z,13.50
2019-05-09T23:20:09.743Z,13.60
2019-05-09T23:22:39.039Z,13.60
2019-05-09T23:25:08.592Z,13.70
2019-05-09T23:27:37.924Z,13.70
2019-05-09T23:30:08.834Z,13.60
2019-05-09T23:32:39.798Z,13.60
2019-05-09T23:35:09.358Z,13.50
2019-05-09T23:37:38.659Z,13.50
2019-05-09T23:40:08.515Z,13.50
2019-05-09T23:42:37.821Z,13.40
2019-05-09T23:45:07.307Z,13.40
2019-05-09T23:47:36.608Z,13.50
2019-05-09T23:50:07.027Z,13.60
2019-05-09T23:52:36.327Z,13.60
2019-05-09T23:55:24.261Z,13.60
2019-05-09T23:58:11.388Z,13.70
